Huntsville International Carl T Jones Field Huntsville US
ICAO: KHSV
IATA: HSV
Category: Large
Scheduled Services: Yes

Elevation: 629 ft
TransAlt. 18000 ft.

Airport Communications:
APP:118.05
ATIS:121.25
CLNC DEL:120.35
CTAF:127.6
DEP:118.05
GND:121.9
ANNISTON RDO:122.2
TWR:127.6
UNICOM:122.95

KHSV Zoom In..

If you have problems with the map follow the link
https://www.worldairports.se/pages/airport.php?
ICAO=KHSV

Runways:

(A) RW 18L length 10006 ft width 150 ft
ILS 111.90 / hdg 182

(B) RW 18R length 12600 ft width 150 ft
ILS 109.30 / hdg 182

(C) RW 36L length 12600 ft width 150 ft
ILS 108.50 / hdg 2

(D) RW 36R length 10006 ft width 150 ft
ILS 109.55 / hdg 2

Location; KHSV
Day. 19 / Time. 12.53 Zulu
* Altimeter: 30.13
* Temperature: 06° c. 42.8°f.
* Wind from: 100° Speed 06 kn.
Dewpoint: 05° c.
Visibility: 7 Statute Miles.
Clouds: Few 4000 ft.
Clouds: Few 2000 ft.
Clouds: Scattered 25000 ft.

KHSV 191253Z 10006KT 7SM FEW040 FEW200 SCT250 06/05 A3013 RMK AO2 SLP204 T00560050


Wind From 100°
Speed 06 kn.

 
 
jpsmedia.com for Web Design worldairports.se 2018   terms of use